sensor_id;sensor_type;location;lat;lon;timestamp;temperature;humidity
69677;DHT22;56914;51.058;9.326;2022-08-01T00:00:47;23.10;66.10
69677;DHT22;56914;51.058;9.326;2022-08-01T00:03:15;23.10;66.10
69677;DHT22;56914;51.058;9.326;2022-08-01T00:05:43;23.10;66.30
69677;DHT22;56914;51.058;9.326;2022-08-01T00:08:16;23.00;66.50
69677;DHT22;56914;51.058;9.326;2022-08-01T00:10:44;23.00;67.20
69677;DHT22;56914;51.058;9.326;2022-08-01T00:13:12;23.00;67.20
69677;DHT22;56914;51.058;9.326;2022-08-01T00:15:40;23.00;66.70
69677;DHT22;56914;51.058;9.326;2022-08-01T00:18:20;23.10;66.40
69677;DHT22;56914;51.058;9.326;2022-08-01T00:20:49;23.20;66.10
69677;DHT22;56914;51.058;9.326;2022-08-01T00:23:24;23.30;65.90
69677;DHT22;56914;51.058;9.326;2022-08-01T00:25:54;23.40;65.70
69677;DHT22;56914;51.058;9.326;2022-08-01T00:28:21;23.40;65.80
69677;DHT22;56914;51.058;9.326;2022-08-01T00:30:49;23.20;66.10
69677;DHT22;56914;51.058;9.326;2022-08-01T00:33:22;23.20;66.40
69677;DHT22;56914;51.058;9.326;2022-08-01T00:35:51;23.10;66.50
69677;DHT22;56914;51.058;9.326;2022-08-01T00:38:19;23.20;66.40
69677;DHT22;56914;51.058;9.326;2022-08-01T00:40:49;23.20;66.20
69677;DHT22;56914;51.058;9.326;2022-08-01T00:43:17;23.30;66.10
69677;DHT22;56914;51.058;9.326;2022-08-01T00:45:45;23.30;66.10
69677;DHT22;56914;51.058;9.326;2022-08-01T00:48:13;23.30;66.00
69677;DHT22;56914;51.058;9.326;2022-08-01T00:50:41;23.30;65.90
69677;DHT22;56914;51.058;9.326;2022-08-01T00:53:09;23.30;65.90
69677;DHT22;56914;51.058;9.326;2022-08-01T00:55:46;23.30;66.00
69677;DHT22;56914;51.058;9.326;2022-08-01T00:58:18;23.20;66.10
69677;DHT22;56914;51.058;9.326;2022-08-01T01:00:49;23.20;66.20
69677;DHT22;56914;51.058;9.326;2022-08-01T01:03:21;23.20;66.30
69677;DHT22;56914;51.058;9.326;2022-08-01T01:06:13;23.20;66.30
69677;DHT22;56914;51.058;9.326;2022-08-01T01:08:43;23.20;66.20
69677;DHT22;56914;51.058;9.326;2022-08-01T01:11:17;23.30;65.90
69677;DHT22;56914;51.058;9.326;2022-08-01T01:13:49;23.30;65.80
69677;DHT22;56914;51.058;9.326;2022-08-01T01:16:19;23.30;65.80
69677;DHT22;56914;51.058;9.326;2022-08-01T01:18:49;23.40;65.70
69677;DHT22;56914;51.058;9.326;2022-08-01T01:24:13;23.30;65.70
69677;DHT22;56914;51.058;9.326;2022-08-01T01:26:45;23.30;65.70
69677;DHT22;56914;51.058;9.326;2022-08-01T01:29:20;23.30;65.70
69677;DHT22;56914;51.058;9.326;2022-08-01T01:31:49;23.30;65.80
69677;DHT22;56914;51.058;9.326;2022-08-01T01:34:19;23.30;65.70
69677;DHT22;56914;51.058;9.326;2022-08-01T01:36:51;23.30;65.60
69677;DHT22;56914;51.058;9.326;2022-08-01T01:39:20;23.40;65.50
69677;DHT22;56914;51.058;9.326;2022-08-01T01:41:52;23.40;65.50
69677;DHT22;56914;51.058;9.326;2022-08-01T01:44:22;23.40;65.50
69677;DHT22;56914;51.058;9.326;2022-08-01T01:46:53;23.40;65.30
69677;DHT22;56914;51.058;9.326;2022-08-01T01:49:21;23.50;65.10
69677;DHT22;56914;51.058;9.326;2022-08-01T01:51:51;23.50;65.00
69677;DHT22;56914;51.058;9.326;2022-08-01T01:54:29;23.60;65.10
69677;DHT22;56914;51.058;9.326;2022-08-01T01:57:01;23.50;65.10
69677;DHT22;56914;51.058;9.326;2022-08-01T01:59:32;23.60;65.10
69677;DHT22;56914;51.058;9.326;2022-08-01T02:02:03;23.60;65.10
69677;DHT22;56914;51.058;9.326;2022-08-01T02:04:32;23.60;65.00
69677;DHT22;56914;51.058;9.326;2022-08-01T02:07:04;23.60;65.00
69677;DHT22;56914;51.058;9.326;2022-08-01T02:09:33;23.50;65.30
69677;DHT22;56914;51.058;9.326;2022-08-01T02:12:02;23.40;65.30
69677;DHT22;56914;51.058;9.326;2022-08-01T02:14:36;23.50;65.30
69677;DHT22;56914;51.058;9.326;2022-08-01T02:17:10;23.50;65.10
69677;DHT22;56914;51.058;9.326;2022-08-01T02:19:39;23.60;65.10
69677;DHT22;56914;51.058;9.326;2022-08-01T02:22:08;23.60;65.10
69677;DHT22;56914;51.058;9.326;2022-08-01T02:24:37;23.50;65.10
69677;DHT22;56914;51.058;9.326;2022-08-01T02:27:09;23.40;65.40
69677;DHT22;56914;51.058;9.326;2022-08-01T02:29:42;23.40;65.60
69677;DHT22;56914;51.058;9.326;2022-08-01T02:32:11;23.40;65.70
69677;DHT22;56914;51.058;9.326;2022-08-01T02:34:40;23.40;65.60
69677;DHT22;56914;51.058;9.326;2022-08-01T02:37:09;23.40;65.70
69677;DHT22;56914;51.058;9.326;2022-08-01T02:39:37;23.40;65.80
69677;DHT22;56914;51.058;9.326;2022-08-01T02:42:06;23.30;65.80
69677;DHT22;56914;51.058;9.326;2022-08-01T02:47:20;23.30;66.00
69677;DHT22;56914;51.058;9.326;2022-08-01T02:49:48;23.40;65.80
69677;DHT22;56914;51.058;9.326;2022-08-01T02:52:20;23.40;65.50
69677;DHT22;56914;51.058;9.326;2022-08-01T02:54:49;23.60;65.30
69677;DHT22;56914;51.058;9.326;2022-08-01T02:57:18;23.60;65.10
69677;DHT22;56914;51.058;9.326;2022-08-01T02:59:46;23.60;65.00
69677;DHT22;56914;51.058;9.326;2022-08-01T03:02:15;23.60;65.10
69677;DHT22;56914;51.058;9.326;2022-08-01T03:04:45;23.60;65.10
69677;DHT22;56914;51.058;9.326;2022-08-01T03:07:22;23.50;65.10
69677;DHT22;56914;51.058;9.326;2022-08-01T03:09:59;23.50;65.20
69677;DHT22;56914;51.058;9.326;2022-08-01T03:12:33;23.50;65.20
69677;DHT22;56914;51.058;9.326;2022-08-01T03:15:02;23.60;65.30
69677;DHT22;56914;51.058;9.326;2022-08-01T03:17:31;23.50;65.40
69677;DHT22;56914;51.058;9.326;2022-08-01T03:20:04;23.40;65.60
69677;DHT22;56914;51.058;9.326;2022-08-01T03:22:35;23.40;65.80
69677;DHT22;56914;51.058;9.326;2022-08-01T03:25:04;23.40;65.80
69677;DHT22;56914;51.058;9.326;2022-08-01T03:27:33;23.30;65.80
69677;DHT22;56914;51.058;9.326;2022-08-01T03:30:03;23.30;65.80
69677;DHT22;56914;51.058;9.326;2022-08-01T03:32:32;23.30;66.00
69677;DHT22;56914;51.058;9.326;2022-08-01T03:35:01;23.30;66.20
69677;DHT22;56914;51.058;9.326;2022-08-01T03:37:32;23.20;66.20
69677;DHT22;56914;51.058;9.326;2022-08-01T03:40:03;23.20;66.40
69677;DHT22;56914;51.058;9.326;2022-08-01T03:42:32;23.20;66.50
69677;DHT22;56914;51.058;9.326;2022-08-01T03:45:02;23.10;66.40
69677;DHT22;56914;51.058;9.326;2022-08-01T03:47:32;23.20;66.40
69677;DHT22;56914;51.058;9.326;2022-08-01T03:50:10;23.20;66.10
69677;DHT22;56914;51.058;9.326;2022-08-01T03:52:41;23.30;66.00
69677;DHT22;56914;51.058;9.326;2022-08-01T03:55:12;23.30;66.00
69677;DHT22;56914;51.058;9.326;2022-08-01T03:57:43;23.20;66.10
69677;DHT22;56914;51.058;9.326;2022-08-01T04:00:12;23.20;66.10
69677;DHT22;56914;51.058;9.326;2022-08-01T04:02:45;23.20;66.00
69677;DHT22;56914;51.058;9.326;2022-08-01T04:05:13;23.30;66.00
69677;DHT22;56914;51.058;9.326;2022-08-01T04:07:47;23.30;66.00
69677;DHT22;56914;51.058;9.326;2022-08-01T04:10:18;23.30;66.00
69677;DHT22;56914;51.058;9.326;2022-08-01T04:12:46;23.20;66.10
69677;DHT22;56914;51.058;9.326;2022-08-01T04:15:14;23.20;66.00
69677;DHT22;56914;51.058;9.326;2022-08-01T04:17:42;23.30;65.90
69677;DHT22;56914;51.058;9.326;2022-08-01T04:20:10;23.30;65.90
69677;DHT22;56914;51.058;9.326;2022-08-01T04:22:39;23.30;66.00
69677;DHT22;56914;51.058;9.326;2022-08-01T04:25:19;23.30;66.20
69677;DHT22;56914;51.058;9.326;2022-08-01T04:27:48;23.20;66.40
69677;DHT22;56914;51.058;9.326;2022-08-01T04:30:20;23.20;66.50
69677;DHT22;56914;51.058;9.326;2022-08-01T04:32:48;23.20;66.50
69677;DHT22;56914;51.058;9.326;2022-08-01T04:35:18;23.20;66.60
69677;DHT22;56914;51.058;9.326;2022-08-01T04:38:06;23.10;66.70
69677;DHT22;56914;51.058;9.326;2022-08-01T04:40:38;23.10;67.10
69677;DHT22;56914;51.058;9.326;2022-08-01T04:43:07;23.00;67.40
69677;DHT22;56914;51.058;9.326;2022-08-01T04:45:35;22.90;67.70
69677;DHT22;56914;51.058;9.326;2022-08-01T04:48:06;22.90;67.80
69677;DHT22;56914;51.058;9.326;2022-08-01T04:50:35;22.90;68.40
69677;DHT22;56914;51.058;9.326;2022-08-01T04:53:03;22.90;67.80
69677;DHT22;56914;51.058;9.326;2022-08-01T04:55:31;23.00;67.80
69677;DHT22;56914;51.058;9.326;2022-08-01T04:58:01;23.00;67.80
69677;DHT22;56914;51.058;9.326;2022-08-01T05:00:30;23.00;67.80
69677;DHT22;56914;51.058;9.326;2022-08-01T05:03:00;23.10;67.70
69677;DHT22;56914;51.058;9.326;2022-08-01T05:05:28;23.20;67.60
69677;DHT22;56914;51.058;9.326;2022-08-01T05:07:57;23.40;67.30
69677;DHT22;56914;51.058;9.326;2022-08-01T05:10:27;23.60;66.90
69677;DHT22;56914;51.058;9.326;2022-08-01T05:12:55;23.70;66.50
69677;DHT22;56914;51.058;9.326;2022-08-01T05:15:25;23.80;66.40
69677;DHT22;56914;51.058;9.326;2022-08-01T05:17:53;23.80;66.30
69677;DHT22;56914;51.058;9.326;2022-08-01T05:20:22;23.80;66.30
69677;DHT22;56914;51.058;9.326;2022-08-01T05:22:50;23.60;66.70
69677;DHT22;56914;51.058;9.326;2022-08-01T05:25:19;23.50;67.00
69677;DHT22;56914;51.058;9.326;2022-08-01T05:28:06;23.40;67.10
69677;DHT22;56914;51.058;9.326;2022-08-01T05:30:36;23.30;67.50
69677;DHT22;56914;51.058;9.326;2022-08-01T05:33:04;23.20;67.80
69677;DHT22;56914;51.058;9.326;2022-08-01T05:35:32;23.20;67.80
69677;DHT22;56914;51.058;9.326;2022-08-01T05:38:14;23.20;67.80
69677;DHT22;56914;51.058;9.326;2022-08-01T05:40:42;23.20;67.90
69677;DHT22;56914;51.058;9.326;2022-08-01T05:43:10;23.30;67.80
69677;DHT22;56914;51.058;9.326;2022-08-01T05:45:40;23.30;67.80
69677;DHT22;56914;51.058;9.326;2022-08-01T05:48:09;23.30;67.90
69677;DHT22;56914;51.058;9.326;2022-08-01T05:50:37;23.30;67.70
69677;DHT22;56914;51.058;9.326;2022-08-01T05:53:04;23.40;67.60
69677;DHT22;56914;51.058;9.326;2022-08-01T05:55:32;23.50;67.50
69677;DHT22;56914;51.058;9.326;2022-08-01T05:58:01;23.50;67.30
69677;DHT22;56914;51.058;9.326;2022-08-01T06:00:29;23.50;67.00
69677;DHT22;56914;51.058;9.326;2022-08-01T06:02:58;23.60;66.80
69677;DHT22;56914;51.058;9.326;2022-08-01T06:05:26;23.60;66.70
69677;DHT22;56914;51.058;9.326;2022-08-01T06:07:54;23.60;66.80
69677;DHT22;56914;51.058;9.326;2022-08-01T06:10:22;23.70;66.70
69677;DHT22;56914;51.058;9.326;2022-08-01T06:12:50;23.70;66.60
69677;DHT22;56914;51.058;9.326;2022-08-01T06:15:18;23.70;66.60
69677;DHT22;56914;51.058;9.326;2022-08-01T06:17:45;23.80;66.40
69677;DHT22;56914;51.058;9.326;2022-08-01T06:20:15;24.00;66.30
69677;DHT22;56914;51.058;9.326;2022-08-01T06:22:43;24.30;66.00
69677;DHT22;56914;51.058;9.326;2022-08-01T06:25:18;24.70;65.50
69677;DHT22;56914;51.058;9.326;2022-08-01T06:27:47;24.80;65.00
69677;DHT22;56914;51.058;9.326;2022-08-01T06:30:16;24.90;64.80
69677;DHT22;56914;51.058;9.326;2022-08-01T06:32:44;24.90;64.50
69677;DHT22;56914;51.058;9.326;2022-08-01T06:35:12;24.90;64.60
69677;DHT22;56914;51.058;9.326;2022-08-01T06:37:41;24.90;64.60
69677;DHT22;56914;51.058;9.326;2022-08-01T06:40:10;25.00;64.50
69677;DHT22;56914;51.058;9.326;2022-08-01T06:42:43;25.10;64.40
69677;DHT22;56914;51.058;9.326;2022-08-01T06:45:12;25.10;64.00
69677;DHT22;56914;51.058;9.326;2022-08-01T06:47:41;25.20;63.80
69677;DHT22;56914;51.058;9.326;2022-08-01T06:50:13;25.20;63.70
69677;DHT22;56914;51.058;9.326;2022-08-01T06:52:42;25.20;63.70
69677;DHT22;56914;51.058;9.326;2022-08-01T06:55:10;25.30;63.50
69677;DHT22;56914;51.058;9.326;2022-08-01T06:57:44;25.40;63.30
69677;DHT22;56914;51.058;9.326;2022-08-01T07:00:13;25.40;62.90
69677;DHT22;56914;51.058;9.326;2022-08-01T07:02:42;25.40;63.00
69677;DHT22;56914;51.058;9.326;2022-08-01T07:05:10;25.40;63.10
69677;DHT22;56914;51.058;9.326;2022-08-01T07:07:38;25.60;62.80
69677;DHT22;56914;51.058;9.326;2022-08-01T07:10:08;25.90;62.50
69677;DHT22;56914;51.058;9.326;2022-08-01T07:12:36;26.00;62.30
69677;DHT22;56914;51.058;9.326;2022-08-01T07:15:07;26.20;61.80
69677;DHT22;56914;51.058;9.326;2022-08-01T07:17:38;26.30;61.60
69677;DHT22;56914;51.058;9.326;2022-08-01T07:20:07;26.60;61.30
69677;DHT22;56914;51.058;9.326;2022-08-01T07:22:36;26.70;60.70
69677;DHT22;56914;51.058;9.326;2022-08-01T07:25:04;26.80;60.60
69677;DHT22;56914;51.058;9.326;2022-08-01T07:27:35;26.80;60.10
69677;DHT22;56914;51.058;9.326;2022-08-01T07:30:04;26.70;59.80
69677;DHT22;56914;51.058;9.326;2022-08-01T07:32:33;26.50;60.00
69677;DHT22;56914;51.058;9.326;2022-08-01T07:35:04;26.30;60.00
69677;DHT22;56914;51.058;9.326;2022-08-01T07:37:32;26.20;59.80
69677;DHT22;56914;51.058;9.326;2022-08-01T07:40:15;26.20;59.90
69677;DHT22;56914;51.058;9.326;2022-08-01T07:42:45;26.20;60.00
69677;DHT22;56914;51.058;9.326;2022-08-01T07:45:13;26.20;59.90
69677;DHT22;56914;51.058;9.326;2022-08-01T07:47:41;26.30;59.60
69677;DHT22;56914;51.058;9.326;2022-08-01T07:50:13;26.50;59.40
69677;DHT22;56914;51.058;9.326;2022-08-01T07:52:41;26.90;59.30
69677;DHT22;56914;51.058;9.326;2022-08-01T07:55:12;27.10;58.50
69677;DHT22;56914;51.058;9.326;2022-08-01T07:57:42;27.40;57.90
69677;DHT22;56914;51.058;9.326;2022-08-01T08:00:12;27.70;57.40
69677;DHT22;56914;51.058;9.326;2022-08-01T08:02:40;27.70;57.10
69677;DHT22;56914;51.058;9.326;2022-08-01T08:05:09;27.70;56.70
69677;DHT22;56914;51.058;9.326;2022-08-01T08:07:37;27.60;56.30
69677;DHT22;56914;51.058;9.326;2022-08-01T08:10:06;27.50;56.30
69677;DHT22;56914;51.058;9.326;2022-08-01T08:12:34;27.30;56.40
69677;DHT22;56914;51.058;9.326;2022-08-01T08:15:04;27.10;56.70
69677;DHT22;56914;51.058;9.326;2022-08-01T08:17:38;27.00;56.70
69677;DHT22;56914;51.058;9.326;2022-08-01T08:20:06;27.00;56.80
69677;DHT22;56914;51.058;9.326;2022-08-01T08:22:36;27.10;57.20
69677;DHT22;56914;51.058;9.326;2022-08-01T08:25:06;27.40;56.90
69677;DHT22;56914;51.058;9.326;2022-08-01T08:27:34;27.60;56.50
69677;DHT22;56914;51.058;9.326;2022-08-01T08:30:09;27.90;55.90
69677;DHT22;56914;51.058;9.326;2022-08-01T08:32:39;28.30;55.40
69677;DHT22;56914;51.058;9.326;2022-08-01T08:35:10;28.70;54.10
69677;DHT22;56914;51.058;9.326;2022-08-01T08:37:48;28.90;53.40
69677;DHT22;56914;51.058;9.326;2022-08-01T08:40:42;29.00;52.40
69677;DHT22;56914;51.058;9.326;2022-08-01T08:43:24;28.80;52.20
69677;DHT22;56914;51.058;9.326;2022-08-01T08:45:55;28.80;52.80
69677;DHT22;56914;51.058;9.326;2022-08-01T08:48:26;28.80;52.90
69677;DHT22;56914;51.058;9.326;2022-08-01T08:50:54;29.10;52.40
69677;DHT22;56914;51.058;9.326;2022-08-01T08:53:23;29.50;51.90
69677;DHT22;56914;51.058;9.326;2022-08-01T08:56:00;29.60;51.10
69677;DHT22;56914;51.058;9.326;2022-08-01T08:58:30;29.30;51.00
69677;DHT22;56914;51.058;9.326;2022-08-01T09:01:00;29.20;51.00
69677;DHT22;56914;51.058;9.326;2022-08-01T09:03:30;29.30;51.40
69677;DHT22;56914;51.058;9.326;2022-08-01T09:06:08;29.50;51.10
69677;DHT22;56914;51.058;9.326;2022-08-01T09:08:37;29.70;50.80
69677;DHT22;56914;51.058;9.326;2022-08-01T09:11:07;30.00;50.40
69677;DHT22;56914;51.058;9.326;2022-08-01T09:13:35;30.30;49.60
69677;DHT22;56914;51.058;9.326;2022-08-01T09:16:15;30.30;49.40
69677;DHT22;56914;51.058;9.326;2022-08-01T09:18:45;30.60;49.30
69677;DHT22;56914;51.058;9.326;2022-08-01T09:21:20;30.80;49.10
69677;DHT22;56914;51.058;9.326;2022-08-01T09:23:54;31.20;49.00
69677;DHT22;56914;51.058;9.326;2022-08-01T09:26:28;31.40;48.30
69677;DHT22;56914;51.058;9.326;2022-08-01T09:28:57;31.30;47.80
69677;DHT22;56914;51.058;9.326;2022-08-01T09:31:26;31.60;47.70
69677;DHT22;56914;51.058;9.326;2022-08-01T09:34:05;31.60;47.30
69677;DHT22;56914;51.058;9.326;2022-08-01T09:36:52;31.60;46.90
69677;DHT22;56914;51.058;9.326;2022-08-01T09:39:23;31.60;46.80
69677;DHT22;56914;51.058;9.326;2022-08-01T09:41:51;31.20;47.00
69677;DHT22;56914;51.058;9.326;2022-08-01T09:44:36;31.00;47.00
69677;DHT22;56914;51.058;9.326;2022-08-01T09:47:08;31.10;47.30
69677;DHT22;56914;51.058;9.326;2022-08-01T09:49:42;31.40;46.70
69677;DHT22;56914;51.058;9.326;2022-08-01T09:52:17;31.80;45.90
69677;DHT22;56914;51.058;9.326;2022-08-01T09:55:02;31.90;45.80
69677;DHT22;56914;51.058;9.326;2022-08-01T09:57:31;32.00;45.80
69677;DHT22;56914;51.058;9.326;2022-08-01T09:59:59;32.30;45.10
69677;DHT22;56914;51.058;9.326;2022-08-01T10:02:29;32.30;44.60
69677;DHT22;56914;51.058;9.326;2022-08-01T10:05:01;32.40;44.70
69677;DHT22;56914;51.058;9.326;2022-08-01T10:10:19;31.70;44.20
69677;DHT22;56914;51.058;9.326;2022-08-01T10:12:55;31.40;44.70
69677;DHT22;56914;51.058;9.326;2022-08-01T10:15:23;31.50;44.90
69677;DHT22;56914;51.058;9.326;2022-08-01T10:18:04;31.40;43.70
69677;DHT22;56914;51.058;9.326;2022-08-01T10:20:45;31.40;43.60
69677;DHT22;56914;51.058;9.326;2022-08-01T10:23:23;31.40;43.70
69677;DHT22;56914;51.058;9.326;2022-08-01T10:26:07;31.60;42.80
69677;DHT22;56914;51.058;9.326;2022-08-01T10:28:36;31.80;43.40
69677;DHT22;56914;51.058;9.326;2022-08-01T10:31:07;31.60;42.10
69677;DHT22;56914;51.058;9.326;2022-08-01T10:33:40;31.30;42.30
69677;DHT22;56914;51.058;9.326;2022-08-01T10:36:20;31.30;42.50
69677;DHT22;56914;51.058;9.326;2022-08-01T10:38:51;31.60;42.60
69677;DHT22;56914;51.058;9.326;2022-08-01T10:41:20;31.80;42.00
69677;DHT22;56914;51.058;9.326;2022-08-01T10:43:48;31.90;41.90
69677;DHT22;56914;51.058;9.326;2022-08-01T10:46:18;32.00;41.00
69677;DHT22;56914;51.058;9.326;2022-08-01T10:48:49;31.80;40.90
69677;DHT22;56914;51.058;9.326;2022-08-01T10:51:20;31.60;41.80
69677;DHT22;56914;51.058;9.326;2022-08-01T10:54:08;31.60;41.90
69677;DHT22;56914;51.058;9.326;2022-08-01T10:56:40;31.70;41.80
69677;DHT22;56914;51.058;9.326;2022-08-01T10:59:10;32.00;41.50
69677;DHT22;56914;51.058;9.326;2022-08-01T11:02:04;32.20;41.10
69677;DHT22;56914;51.058;9.326;2022-08-01T11:04:34;32.30;40.90
69677;DHT22;56914;51.058;9.326;2022-08-01T11:07:13;32.30;41.10
69677;DHT22;56914;51.058;9.326;2022-08-01T11:09:44;32.70;41.30
69677;DHT22;56914;51.058;9.326;2022-08-01T11:12:19;33.00;40.50
69677;DHT22;56914;51.058;9.326;2022-08-01T11:17:38;33.60;40.10
69677;DHT22;56914;51.058;9.326;2022-08-01T11:20:13;33.40;39.30
69677;DHT22;56914;51.058;9.326;2022-08-01T11:28:33;31.80;39.70
69677;DHT22;56914;51.058;9.326;2022-08-01T11:31:25;31.40;40.30
69677;DHT22;56914;51.058;9.326;2022-08-01T11:33:53;31.00;40.80
69677;DHT22;56914;51.058;9.326;2022-08-01T11:36:27;30.90;40.90
69677;DHT22;56914;51.058;9.326;2022-08-01T11:39:18;31.10;40.80
69677;DHT22;56914;51.058;9.326;2022-08-01T11:41:48;31.40;40.60
69677;DHT22;56914;51.058;9.326;2022-08-01T11:44:20;31.80;40.60
69677;DHT22;56914;51.058;9.326;2022-08-01T11:46:52;32.30;39.80
69677;DHT22;56914;51.058;9.326;2022-08-01T11:52:15;32.20;38.60
69677;DHT22;56914;51.058;9.326;2022-08-01T11:54:44;31.80;38.70
69677;DHT22;56914;51.058;9.326;2022-08-01T11:57:13;31.80;38.60
69677;DHT22;56914;51.058;9.326;2022-08-01T11:59:47;31.90;38.60
69677;DHT22;56914;51.058;9.326;2022-08-01T12:02:30;32.10;38.50
69677;DHT22;56914;51.058;9.326;2022-08-01T12:05:04;32.30;38.20
69677;DHT22;56914;51.058;9.326;2022-08-01T12:07:38;32.30;37.60
69677;DHT22;56914;51.058;9.326;2022-08-01T12:10:07;32.20;37.30
69677;DHT22;56914;51.058;9.326;2022-08-01T12:12:36;32.30;37.60
69677;DHT22;56914;51.058;9.326;2022-08-01T12:15:07;32.50;38.00
69677;DHT22;56914;51.058;9.326;2022-08-01T12:17:38;32.40;37.20
69677;DHT22;56914;51.058;9.326;2022-08-01T12:20:11;32.30;37.20
69677;DHT22;56914;51.058;9.326;2022-08-01T12:22:39;32.50;37.20
69677;DHT22;56914;51.058;9.326;2022-08-01T12:25:10;32.90;36.50
69677;DHT22;56914;51.058;9.326;2022-08-01T12:27:42;32.90;35.80
69677;DHT22;56914;51.058;9.326;2022-08-01T12:30:14;33.10;36.10
69677;DHT22;56914;51.058;9.326;2022-08-01T12:32:47;33.00;36.20
69677;DHT22;56914;51.058;9.326;2022-08-01T12:35:19;33.20;36.00
69677;DHT22;56914;51.058;9.326;2022-08-01T12:37:51;33.10;35.20
69677;DHT22;56914;51.058;9.326;2022-08-01T12:40:20;32.60;35.70
69677;DHT22;56914;51.058;9.326;2022-08-01T12:42:52;32.40;36.40
69677;DHT22;56914;51.058;9.326;2022-08-01T12:45:23;32.60;36.30
69677;DHT22;56914;51.058;9.326;2022-08-01T12:47:54;32.60;36.10
69677;DHT22;56914;51.058;9.326;2022-08-01T12:50:24;32.80;36.50
69677;DHT22;56914;51.058;9.326;2022-08-01T12:52:54;33.20;36.10
69677;DHT22;56914;51.058;9.326;2022-08-01T12:55:24;33.40;35.60
69677;DHT22;56914;51.058;9.326;2022-08-01T12:58:04;33.60;35.20
69677;DHT22;56914;51.058;9.326;2022-08-01T13:00:33;33.30;35.00
69677;DHT22;56914;51.058;9.326;2022-08-01T13:03:05;32.90;35.50
69677;DHT22;56914;51.058;9.326;2022-08-01T13:05:43;32.20;36.80
69677;DHT22;56914;51.058;9.326;2022-08-01T13:08:15;31.70;38.00
69677;DHT22;56914;51.058;9.326;2022-08-01T13:10:43;31.20;39.40
69677;DHT22;56914;51.058;9.326;2022-08-01T13:13:11;30.60;40.60
69677;DHT22;56914;51.058;9.326;2022-08-01T13:16:04;30.10;41.50
69677;DHT22;56914;51.058;9.326;2022-08-01T13:18:34;29.60;42.50
69677;DHT22;56914;51.058;9.326;2022-08-01T13:21:09;29.20;42.70
69677;DHT22;56914;51.058;9.326;2022-08-01T13:23:38;29.20;43.20
69677;DHT22;56914;51.058;9.326;2022-08-01T13:26:39;29.20;43.10
69677;DHT22;56914;51.058;9.326;2022-08-01T13:29:08;29.00;43.50
69677;DHT22;56914;51.058;9.326;2022-08-01T13:31:39;28.80;43.70
69677;DHT22;56914;51.058;9.326;2022-08-01T13:34:07;28.60;43.90
69677;DHT22;56914;51.058;9.326;2022-08-01T13:36:35;28.50;44.20
69677;DHT22;56914;51.058;9.326;2022-08-01T13:39:03;28.70;44.50
69677;DHT22;56914;51.058;9.326;2022-08-01T13:41:49;29.00;44.20
69677;DHT22;56914;51.058;9.326;2022-08-01T13:44:17;29.10;43.70
69677;DHT22;56914;51.058;9.326;2022-08-01T13:46:49;29.30;43.70
69677;DHT22;56914;51.058;9.326;2022-08-01T13:49:17;29.60;43.50
69677;DHT22;56914;51.058;9.326;2022-08-01T13:51:45;30.00;43.00
69677;DHT22;56914;51.058;9.326;2022-08-01T13:54:16;30.10;42.40
69677;DHT22;56914;51.058;9.326;2022-08-01T13:56:47;29.90;42.50
69677;DHT22;56914;51.058;9.326;2022-08-01T13:59:15;29.80;42.90
69677;DHT22;56914;51.058;9.326;2022-08-01T14:01:43;29.80;43.20
69677;DHT22;56914;51.058;9.326;2022-08-01T14:04:16;29.90;43.60
69677;DHT22;56914;51.058;9.326;2022-08-01T14:06:45;29.90;43.60
69677;DHT22;56914;51.058;9.326;2022-08-01T14:09:13;30.10;43.60
69677;DHT22;56914;51.058;9.326;2022-08-01T14:11:50;30.20;43.50
69677;DHT22;56914;51.058;9.326;2022-08-01T14:14:21;30.40;43.00
69677;DHT22;56914;51.058;9.326;2022-08-01T14:16:49;30.40;42.90
69677;DHT22;56914;51.058;9.326;2022-08-01T14:19:19;30.30;42.90
69677;DHT22;56914;51.058;9.326;2022-08-01T14:22:05;30.20;43.10
69677;DHT22;56914;51.058;9.326;2022-08-01T14:24:34;30.00;42.90
69677;DHT22;56914;51.058;9.326;2022-08-01T14:27:06;29.80;43.30
69677;DHT22;56914;51.058;9.326;2022-08-01T14:29:34;29.60;43.50
69677;DHT22;56914;51.058;9.326;2022-08-01T14:32:22;29.30;43.90
69677;DHT22;56914;51.058;9.326;2022-08-01T14:34:56;29.40;44.30
69677;DHT22;56914;51.058;9.326;2022-08-01T14:37:25;29.50;44.50
69677;DHT22;56914;51.058;9.326;2022-08-01T14:39:55;29.60;45.30
69677;DHT22;56914;51.058;9.326;2022-08-01T14:42:29;29.90;44.40
69677;DHT22;56914;51.058;9.326;2022-08-01T14:44:56;30.10;44.30
69677;DHT22;56914;51.058;9.326;2022-08-01T14:47:27;30.30;44.40
69677;DHT22;56914;51.058;9.326;2022-08-01T14:49:57;30.20;43.60
69677;DHT22;56914;51.058;9.326;2022-08-01T14:52:25;30.00;43.70
69677;DHT22;56914;51.058;9.326;2022-08-01T14:54:53;29.90;43.90
69677;DHT22;56914;51.058;9.326;2022-08-01T14:57:21;29.80;44.20
69677;DHT22;56914;51.058;9.326;2022-08-01T14:59:49;29.60;44.10
69677;DHT22;56914;51.058;9.326;2022-08-01T15:02:17;29.20;44.40
69677;DHT22;56914;51.058;9.326;2022-08-01T15:04:45;29.10;44.70
69677;DHT22;56914;51.058;9.326;2022-08-01T15:07:15;28.90;44.70
69677;DHT22;56914;51.058;9.326;2022-08-01T15:09:43;29.00;44.80
69677;DHT22;56914;51.058;9.326;2022-08-01T15:12:18;29.20;44.80
69677;DHT22;56914;51.058;9.326;2022-08-01T15:15:15;29.30;44.30
69677;DHT22;56914;51.058;9.326;2022-08-01T15:17:43;29.50;44.10
69677;DHT22;56914;51.058;9.326;2022-08-01T15:20:17;29.60;43.80
69677;DHT22;56914;51.058;9.326;2022-08-01T15:22:46;29.70;43.40
69677;DHT22;56914;51.058;9.326;2022-08-01T15:25:15;29.60;43.50
69677;DHT22;56914;51.058;9.326;2022-08-01T15:27:43;29.40;43.50
69677;DHT22;56914;51.058;9.326;2022-08-01T15:30:11;29.00;43.60
69677;DHT22;56914;51.058;9.326;2022-08-01T15:32:55;28.60;44.00
69677;DHT22;56914;51.058;9.326;2022-08-01T15:35:23;28.50;44.10
69677;DHT22;56914;51.058;9.326;2022-08-01T15:37:52;28.30;44.20
69677;DHT22;56914;51.058;9.326;2022-08-01T15:40:20;28.20;44.40
69677;DHT22;56914;51.058;9.326;2022-08-01T15:42:48;28.10;44.60
69677;DHT22;56914;51.058;9.326;2022-08-01T15:45:19;28.00;44.60
69677;DHT22;56914;51.058;9.326;2022-08-01T15:48:08;27.90;44.80
69677;DHT22;56914;51.058;9.326;2022-08-01T15:50:36;27.80;45.00
69677;DHT22;56914;51.058;9.326;2022-08-01T15:53:14;27.90;45.10
69677;DHT22;56914;51.058;9.326;2022-08-01T15:55:44;27.90;45.30
69677;DHT22;56914;51.058;9.326;2022-08-01T15:58:18;27.80;45.50
69677;DHT22;56914;51.058;9.326;2022-08-01T16:00:53;27.80;45.70
69677;DHT22;56914;51.058;9.326;2022-08-01T16:03:22;28.00;45.50
69677;DHT22;56914;51.058;9.326;2022-08-01T16:05:55;28.00;45.50
69677;DHT22;56914;51.058;9.326;2022-08-01T16:08:32;27.90;46.20
69677;DHT22;56914;51.058;9.326;2022-08-01T16:11:08;27.90;45.80
69677;DHT22;56914;51.058;9.326;2022-08-01T16:13:53;27.70;46.10
69677;DHT22;56914;51.058;9.326;2022-08-01T16:16:21;27.70;46.50